createdAt,value
2022-12-28T00:00:02.096Z,101370.53
2022-12-28T00:02:29.959Z,101354.25
2022-12-28T00:04:57.871Z,101355.09
2022-12-28T00:07:27.515Z,101355.09
2022-12-28T00:09:55.406Z,101358.88
2022-12-28T00:12:23.327Z,101355.31
2022-12-28T00:14:51.399Z,101360.53
2022-12-28T00:17:19.555Z,101358.88
2022-12-28T00:19:47.519Z,101350.91
2022-12-28T00:22:15.384Z,101359.69
2022-12-28T00:24:44.656Z,101356.16
2022-12-28T00:27:12.865Z,101361.59
2022-12-28T00:29:40.806Z,101360.75
2022-12-28T00:32:08.706Z,101352.38
2022-12-28T00:34:36.626Z,101342.56
2022-12-28T00:37:09.060Z,101329.00
2022-12-28T00:39:39.259Z,101323.56
2022-12-28T00:42:08.592Z,101316.22
2022-12-28T00:44:36.504Z,101313.72
2022-12-28T00:47:04.721Z,101312.69
2022-12-28T00:49:32.637Z,101319.16
2022-12-28T00:52:00.532Z,101312.88
2022-12-28T00:54:29.200Z,101306.41
2022-12-28T00:56:57.467Z,101284.88
2022-12-28T00:59:26.696Z,101283.00
2022-12-28T01:01:54.654Z,101272.97
2022-12-28T01:04:22.916Z,101274.03
2022-12-28T01:06:51.053Z,101262.13
2022-12-28T01:09:18.929Z,101250.41
2022-12-28T01:11:46.805Z,101257.53
2022-12-28T01:14:14.702Z,101252.28
2022-12-28T01:16:44.471Z,101255.00
2022-12-28T01:19:12.408Z,101247.69
2022-12-28T01:21:40.665Z,101254.16
2022-12-28T01:24:09.292Z,101248.72
2022-12-28T01:26:37.519Z,101254.16
2022-12-28T01:29:05.427Z,101239.75
2022-12-28T01:31:33.384Z,101229.53
2022-12-28T01:34:03.153Z,101227.66
2022-12-28T01:36:34.979Z,101242.06
2022-12-28T01:39:04.511Z,101230.38
2022-12-28T01:41:32.837Z,101224.09
2022-12-28T01:44:38.084Z,101213.22
2022-12-28T01:47:07.263Z,101220.53
2022-12-28T01:49:38.015Z,101197.53
2022-12-28T01:52:07.349Z,101199.84
2022-12-28T01:54:36.657Z,101200.69
2022-12-28T01:57:05.031Z,101193.38
2022-12-28T01:59:34.132Z,101185.22
2022-12-28T02:02:02.159Z,101175.19
2022-12-28T02:04:30.350Z,101177.91
2022-12-28T02:06:59.861Z,101167.03
2022-12-28T02:09:30.492Z,101175.19
2022-12-28T02:11:58.688Z,101164.53
2022-12-28T02:14:26.585Z,101165.38
2022-12-28T02:16:54.839Z,101156.38
2022-12-28T02:19:25.802Z,101154.50
2022-12-28T02:22:02.402Z,101142.81
2022-12-28T02:25:11.465Z,101151.78
2022-12-28T02:27:41.463Z,101147.19
2022-12-28T02:30:13.817Z,101141.75
2022-12-28T02:32:57.340Z,101140.28
2022-12-28T02:35:30.011Z,101137.16
2022-12-28T02:38:00.561Z,100995.00
2022-12-28T02:40:30.544Z,101131.94
2022-12-28T02:42:58.433Z,101124.63
2022-12-28T02:45:55.874Z,101120.03
2022-12-28T02:48:41.058Z,101122.94
2022-12-28T02:51:19.933Z,101065.44
2022-12-28T02:54:36.156Z,101112.09
2022-12-28T02:57:07.889Z,101098.50
2022-12-28T02:59:42.364Z,101093.91
2022-12-28T03:02:18.672Z,101092.44
2022-12-28T03:04:55.146Z,101083.88
2022-12-28T03:07:43.928Z,101072.19
2022-12-28T03:10:13.094Z,101069.47
2022-12-28T03:12:43.967Z,101070.31
2022-12-28T03:15:14.275Z,101068.63
2022-12-28T03:18:01.441Z,101062.34
2022-12-28T03:20:48.539Z,101061.50
2022-12-28T03:23:35.732Z,101051.50
2022-12-28T03:26:21.633Z,101044.38
2022-12-28T03:29:07.000Z,101023.53
2022-12-28T03:31:34.892Z,101032.69
2022-12-28T03:34:07.688Z,101030.81
2022-12-28T03:36:41.376Z,101036.22
2022-12-28T03:39:11.859Z,100948.09
2022-12-28T03:41:40.474Z,101019.94
2022-12-28T03:44:09.238Z,101026.22
2022-12-28T03:46:39.662Z,101024.13
2022-12-28T03:49:09.650Z,101026.00
2022-12-28T03:51:37.535Z,101020.56
2022-12-28T03:54:05.511Z,101015.97
2022-12-28T03:56:33.679Z,101004.28
2022-12-28T03:59:01.564Z,101004.28
2022-12-28T04:01:29.561Z,100998.84
2022-12-28T04:03:57.546Z,100992.56
2022-12-28T04:06:27.134Z,101003.44
2022-12-28T04:08:55.045Z,100986.09
2022-12-28T04:11:22.945Z,100991.75
2022-12-28T04:13:50.841Z,100993.00
2022-12-28T04:16:19.165Z,101002.59
2022-12-28T04:18:47.384Z,100999.88
2022-12-28T04:21:15.763Z,100993.63
2022-12-28T04:23:45.308Z,100996.13
2022-12-28T04:26:13.956Z,100990.69
2022-12-28T04:28:41.907Z,100987.97
2022-12-28T04:31:10.400Z,100986.09
2022-12-28T04:33:38.623Z,100988.19
2022-12-28T04:36:07.750Z,100970.84
2022-12-28T04:38:37.071Z,100977.97
2022-12-28T04:41:07.321Z,100971.69
2022-12-28T04:43:35.228Z,100975.25
2022-12-28T04:46:04.384Z,100973.38
2022-12-28T04:48:32.357Z,100967.09
2022-12-28T04:51:00.252Z,100958.09
2022-12-28T04:53:28.182Z,100948.09
2022-12-28T04:55:58.393Z,100943.50
2022-12-28T04:58:27.728Z,100936.19
2022-12-28T05:00:55.720Z,100923.63
2022-12-28T05:03:23.624Z,100919.03
2022-12-28T05:05:51.824Z,100926.16
2022-12-28T05:08:19.712Z,100922.59
2022-12-28T05:10:47.579Z,100920.72
2022-12-28T05:13:15.512Z,100926.16
2022-12-28T05:15:45.081Z,100935.13
2022-12-28T05:18:12.960Z,100935.94
2022-12-28T05:20:41.172Z,100931.59
2022-12-28T05:23:09.016Z,100933.22
2022-12-28T05:25:37.165Z,100920.72
2022-12-28T05:28:05.459Z,100921.56
2022-12-28T05:30:33.327Z,100920.47
2022-12-28T05:33:02.643Z,100919.66
2022-12-28T05:35:30.557Z,100916.94
2022-12-28T05:37:58.425Z,100926.97
2022-12-28T05:40:26.293Z,100912.34
2022-12-28T05:42:54.224Z,100912.13
2022-12-28T05:45:22.103Z,100907.75
2022-12-28T05:47:50.263Z,100910.47
2022-12-28T05:50:19.572Z,100907.75
2022-12-28T05:52:47.459Z,100893.31
2022-12-28T05:55:15.375Z,100894.16
2022-12-28T05:57:43.688Z,100901.47
2022-12-28T06:00:12.607Z,100896.03
2022-12-28T06:02:40.745Z,100901.25
2022-12-28T06:05:09.748Z,100897.72
2022-12-28T06:07:39.328Z,100897.72
2022-12-28T06:10:08.373Z,100886.84
2022-12-28T06:12:36.280Z,100887.69
2022-12-28T06:15:04.417Z,100890.41
2022-12-28T06:17:32.310Z,100881.41
2022-12-28T06:20:00.198Z,100867.84
2022-12-28T06:22:28.869Z,100867.84
2022-12-28T06:24:58.127Z,100871.38
2022-12-28T06:27:26.307Z,100867.84
2022-12-28T06:29:54.245Z,100865.94
2022-12-28T06:32:22.128Z,100854.25
2022-12-28T06:34:50.165Z,100853.41
2022-12-28T06:37:18.343Z,100855.53
2022-12-28T06:39:46.199Z,100846.09
2022-12-28T06:42:15.480Z,100849.66
2022-12-28T06:44:44.815Z,100863.25
2022-12-28T06:47:13.327Z,100849.66
2022-12-28T06:49:41.254Z,100850.69
2022-12-28T06:52:09.151Z,100864.28
2022-12-28T06:54:37.042Z,100854.25
2022-12-28T06:57:05.268Z,100859.47
2022-12-28T06:59:35.402Z,100855.94
2022-12-28T07:02:03.493Z,100856.97
2022-12-28T07:04:31.542Z,100858.84
2022-12-28T07:06:59.769Z,100864.06
2022-12-28T07:09:27.645Z,100869.50
2022-12-28T07:11:55.567Z,100864.28
2022-12-28T07:14:23.413Z,100868.66
2022-12-28T07:16:52.658Z,100858.00
2022-12-28T07:19:20.569Z,100866.78
2022-12-28T07:21:50.235Z,100864.06
2022-12-28T07:24:18.109Z,100858.66
2022-12-28T07:26:46.273Z,100855.94
2022-12-28T07:29:14.217Z,100855.94
2022-12-28T07:31:45.730Z,100855.09
2022-12-28T07:34:16.106Z,100871.19
2022-12-28T07:36:44.219Z,100852.38
2022-12-28T07:39:12.176Z,100860.53
2022-12-28T07:41:40.101Z,100857.81
2022-12-28T07:44:08.022Z,100859.47
2022-12-28T07:46:38.032Z,100836.91
2022-12-28T07:49:05.991Z,100860.53
2022-12-28T07:51:36.027Z,100853.22
2022-12-28T07:54:03.986Z,100854.06
2022-12-28T07:59:00.492Z,100845.91
2022-12-28T08:01:29.519Z,100855.94
2022-12-28T08:03:58.811Z,100845.91
2022-12-28T08:06:27.210Z,100848.63
2022-12-28T08:08:58.965Z,100841.50
2022-12-28T08:11:27.965Z,100836.06
2022-12-28T08:13:56.125Z,100848.63
2022-12-28T08:16:26.868Z,100837.75
2022-12-28T08:18:54.905Z,100846.09
2022-12-28T08:21:26.519Z,100843.19
2022-12-28T08:23:54.416Z,100837.97
2022-12-28T08:26:24.895Z,100852.59
2022-12-28T08:28:55.022Z,100853.22
2022-12-28T08:31:23.978Z,100838.78
2022-12-28T08:33:51.938Z,100848.63
2022-12-28T08:36:19.835Z,100840.47
2022-12-28T08:38:47.714Z,100848.63
2022-12-28T08:41:16.888Z,100840.47
2022-12-28T08:43:46.343Z,100853.22
2022-12-28T08:46:16.360Z,100838.78
2022-12-28T08:48:44.548Z,100842.34
2022-12-28T08:51:13.234Z,100856.75
2022-12-28T08:53:41.228Z,100838.78
2022-12-28T08:56:11.407Z,100845.06
2022-12-28T08:58:39.407Z,100839.63
2022-12-28T09:01:09.881Z,100836.91
2022-12-28T09:03:38.360Z,100844.03
2022-12-28T09:06:07.346Z,100839.44
2022-12-28T09:08:35.256Z,100834.59
2022-12-28T09:11:03.296Z,100832.31
2022-12-28T09:13:31.216Z,100835.03
2022-12-28T09:15:59.218Z,100835.03
2022-12-28T09:18:28.557Z,100836.91
2022-12-28T09:20:56.506Z,100834.19
2022-12-28T09:23:24.480Z,100843.19
2022-12-28T09:25:52.667Z,100841.31
2022-12-28T09:28:20.577Z,100837.75
2022-12-28T09:30:48.551Z,100834.19
2022-12-28T09:33:46.111Z,100835.88
2022-12-28T09:36:23.651Z,100841.31
2022-12-28T09:38:51.618Z,100837.75
2022-12-28T09:41:24.057Z,100830.44
2022-12-28T09:43:52.510Z,100836.91
2022-12-28T09:46:20.946Z,100842.34
2022-12-28T09:48:49.912Z,100837.75
2022-12-28T09:51:18.045Z,100842.34
2022-12-28T09:53:47.360Z,100837.75
2022-12-28T09:56:23.690Z,100852.16
2022-12-28T09:58:51.646Z,100835.03
2022-12-28T10:01:19.848Z,100840.66
2022-12-28T10:03:47.882Z,100836.91
2022-12-28T10:06:17.005Z,100833.16
2022-12-28T10:08:49.210Z,100838.59
2022-12-28T10:11:20.090Z,100827.72
2022-12-28T10:13:56.275Z,100827.72
2022-12-28T10:16:25.233Z,100833.56
2022-12-28T10:18:53.225Z,100832.31
2022-12-28T10:21:26.837Z,100834.00
2022-12-28T10:26:49.423Z,100825.84
2022-12-28T10:29:19.704Z,100821.47
2022-12-28T10:31:58.625Z,100818.09
2022-12-28T10:34:33.373Z,100808.72
2022-12-28T10:37:05.917Z,100813.09
2022-12-28T10:39:35.288Z,100805.16
2022-12-28T10:42:03.773Z,100800.56
2022-12-28T10:44:40.646Z,100799.72
2022-12-28T10:47:17.750Z,100794.28
2022-12-28T10:50:02.743Z,100796.81
2022-12-28T10:52:37.476Z,100786.78
2022-12-28T10:55:27.179Z,100786.97
2022-12-28T10:58:27.934Z,100785.94
2022-12-28T11:00:48.538Z,100778.84
2022-12-28T11:03:20.420Z,100772.56
2022-12-28T11:05:57.334Z,100776.13
2022-12-28T11:08:25.542Z,100770.69
2022-12-28T11:10:59.079Z,100753.41
2022-12-28T11:13:27.539Z,100776.72
2022-12-28T11:15:55.748Z,100768.81
2022-12-28T11:18:23.712Z,100772.34
2022-12-28T11:20:52.392Z,100757.09
2022-12-28T11:23:21.404Z,100757.94
2022-12-28T11:25:49.641Z,100761.25
2022-12-28T11:28:20.047Z,100750.63
2022-12-28T11:30:51.216Z,100758.78
2022-12-28T11:33:27.373Z,100745.19
2022-12-28T11:35:59.605Z,100740.34
2022-12-28T11:38:40.969Z,100747.91
2022-12-28T11:41:11.008Z,100744.34
2022-12-28T11:43:50.209Z,100742.47
2022-12-28T11:46:40.645Z,100741.41
2022-12-28T11:49:38.290Z,100745.19
2022-12-28T11:52:45.486Z,100740.81
2022-12-28T11:55:51.038Z,100746.25
2022-12-28T11:58:55.375Z,100734.97
2022-12-28T12:01:51.741Z,100742.69
2022-12-28T12:04:41.686Z,100732.88
2022-12-28T12:07:32.151Z,100732.66
2022-12-28T12:10:21.740Z,100729.94
2022-12-28T12:12:53.323Z,100727.22
2022-12-28T12:15:23.004Z,100721.78
2022-12-28T12:17:54.651Z,100719.09
2022-12-28T12:20:26.913Z,100715.53
2022-12-28T12:22:57.922Z,100717.19
2022-12-28T12:25:28.140Z,100706.34
2022-12-28T12:27:57.578Z,100709.06
2022-12-28T12:30:25.543Z,100698.78
2022-12-28T12:32:55.554Z,100697.09
2022-12-28T12:35:24.507Z,100699.81
2022-12-28T12:37:55.703Z,100684.44
2022-12-28T12:40:58.684Z,100695.22
2022-12-28T12:43:30.398Z,100694.63
2022-12-28T12:46:06.936Z,100690.69
2022-12-28T12:48:41.743Z,100697.34
2022-12-28T12:51:19.327Z,100693.59
2022-12-28T12:53:54.025Z,100690.63
2022-12-28T12:56:30.626Z,100674.56
2022-12-28T12:59:04.139Z,100679.19
2022-12-28T13:01:35.120Z,100668.91
2022-12-28T13:04:08.062Z,100658.03
2022-12-28T13:06:36.722Z,100650.94
2022-12-28T13:09:06.473Z,100640.91
2022-12-28T13:11:37.010Z,100637.34
2022-12-28T13:14:05.050Z,100622.38
2022-12-28T13:16:33.617Z,100617.09
2022-12-28T13:19:02.463Z,100624.19
2022-12-28T13:21:40.195Z,100613.53
2022-12-28T13:24:22.892Z,100606.84
2022-12-28T13:26:50.849Z,100594.31
2022-12-28T13:29:20.070Z,100603.28
2022-12-28T13:31:49.894Z,100595.16
2022-12-28T13:34:19.388Z,100579.91
2022-12-28T13:36:54.362Z,100577.19
2022-12-28T13:39:22.494Z,100580.72
2022-12-28T13:41:51.412Z,100547.69
2022-12-28T13:44:50.691Z,100578.00
2022-12-28T13:47:21.063Z,100580.72
2022-12-28T13:49:55.490Z,100570.06
2022-12-28T13:52:26.708Z,100475.81
2022-12-28T13:54:55.844Z,100540.19
2022-12-28T14:00:12.769Z,100530.16
2022-12-28T14:02:41.451Z,100535.59
2022-12-28T14:05:10.261Z,100560.03
2022-12-28T14:07:39.971Z,100558.16
2022-12-28T14:10:08.892Z,100565.47
2022-12-28T14:12:36.857Z,100557.34
2022-12-28T14:15:06.845Z,100550.00
2022-12-28T14:17:35.134Z,100556.28
2022-12-28T14:20:03.048Z,100541.03
2022-12-28T14:22:31.986Z,100525.63
2022-12-28T14:25:06.383Z,100527.44
2022-12-28T14:27:36.701Z,100523.91
2022-12-28T14:30:09.209Z,100514.91
2022-12-28T14:32:42.529Z,100513.03
2022-12-28T14:35:25.859Z,100516.59
2022-12-28T14:37:55.425Z,100514.72
2022-12-28T14:40:28.276Z,100496.78
2022-12-28T14:42:56.336Z,100508.44
2022-12-28T14:45:36.057Z,100509.50
2022-12-28T14:48:25.770Z,100511.16
2022-12-28T14:50:58.254Z,100500.28
2022-12-28T14:53:26.259Z,100494.03
2022-12-28T14:56:04.605Z,100468.06
2022-12-28T14:58:33.959Z,100488.59
2022-12-28T15:01:03.016Z,100473.97
2022-12-28T15:03:31.080Z,100464.16
2022-12-28T15:05:59.540Z,100468.53
2022-12-28T15:08:28.381Z,100458.34
2022-12-28T15:10:57.114Z,100463.09
2022-12-28T15:13:26.705Z,100456.84
2022-12-28T15:15:56.175Z,100454.13
2022-12-28T15:18:24.215Z,100457.66
2022-12-28T15:20:52.204Z,100451.41
2022-12-28T15:23:20.816Z,100438.66
2022-12-28T15:25:49.160Z,100438.66
2022-12-28T15:28:17.215Z,100432.38
2022-12-28T15:30:46.522Z,100413.75
2022-12-28T15:33:14.411Z,100437.00
2022-12-28T15:35:42.641Z,100434.06
2022-12-28T15:38:10.521Z,100425.06
2022-12-28T15:40:40.163Z,100419.03
2022-12-28T15:43:08.125Z,100423.19
2022-12-28T15:45:36.010Z,100417.75
2022-12-28T15:48:06.250Z,100411.50
2022-12-28T15:50:34.229Z,100404.41
2022-12-28T15:53:02.113Z,100392.47
2022-12-28T15:55:31.309Z,100387.06
2022-12-28T15:57:59.194Z,100388.94
2022-12-28T16:00:27.080Z,100387.88
2022-12-28T16:02:55.403Z,100372.63
2022-12-28T16:05:24.871Z,100374.31
2022-12-28T16:07:53.164Z,100379.72
2022-12-28T16:10:21.087Z,100367.00
2022-12-28T16:12:49.032Z,100372.41
2022-12-28T16:15:16.950Z,100360.09
2022-12-28T16:17:53.327Z,100359.91
2022-12-28T16:20:26.207Z,100359.69
2022-12-28T16:22:54.702Z,100351.75
2022-12-28T16:25:22.907Z,100349.03
2022-12-28T16:27:50.837Z,100346.53
2022-12-28T16:30:18.889Z,100332.72
2022-12-28T16:32:47.988Z,100334.63
2022-12-28T16:35:16.557Z,100330.84
2022-12-28T16:37:46.378Z,100324.59
2022-12-28T16:40:14.416Z,100317.47
2022-12-28T16:42:45.843Z,100321.88
2022-12-28T16:45:13.948Z,100302.25
2022-12-28T16:47:44.838Z,100311.84
2022-12-28T16:50:13.229Z,100300.97
2022-12-28T16:52:41.136Z,100306.41
2022-12-28T16:55:10.796Z,100297.19
2022-12-28T16:57:38.964Z,100288.44
2022-12-28T17:00:09.387Z,100277.56
2022-12-28T17:02:37.457Z,100275.69
2022-12-28T17:05:06.291Z,100262.13
2022-12-28T17:07:34.576Z,100262.94
2022-12-28T17:10:02.488Z,100265.66
2022-12-28T17:12:31.910Z,100260.66
2022-12-28T17:15:04.789Z,100270.25
2022-12-28T17:17:35.325Z,100266.50
2022-12-28T17:20:03.229Z,100264.00
2022-12-28T17:22:31.225Z,100270.25
2022-12-28T17:24:59.199Z,100272.97
2022-12-28T17:27:27.590Z,100270.25
2022-12-28T17:29:56.987Z,100267.53
2022-12-28T17:32:24.939Z,100264.00
2022-12-28T17:34:52.851Z,100262.94
2022-12-28T17:37:21.045Z,100252.91
2022-12-28T17:39:48.973Z,100242.75
2022-12-28T17:42:16.872Z,100250.41
2022-12-28T17:44:45.791Z,100246.66
2022-12-28T17:47:15.476Z,100238.13
2022-12-28T17:49:43.343Z,100241.22
2022-12-28T17:52:13.465Z,100238.50
2022-12-28T17:54:41.369Z,100232.25
2022-12-28T17:57:09.886Z,100227.63
2022-12-28T17:59:37.763Z,100230.34
2022-12-28T18:02:10.079Z,100223.03
2022-12-28T18:04:39.754Z,100214.91
2022-12-28T18:07:07.990Z,100215.72
2022-12-28T18:09:35.924Z,100209.69
2022-12-28T18:12:03.902Z,100201.53
2022-12-28T18:14:31.828Z,100202.59
2022-12-28T18:17:00.093Z,100200.69
2022-12-28T18:19:27.992Z,100185.47
2022-12-28T18:21:57.483Z,100196.94
2022-12-28T18:24:25.420Z,100179.81
2022-12-28T18:26:53.609Z,100177.09
2022-12-28T18:29:21.505Z,100177.94
2022-12-28T18:31:49.413Z,100175.44
2022-12-28T18:34:17.615Z,100173.31
2022-12-28T18:36:45.473Z,100163.50
2022-12-28T18:39:14.778Z,100167.06
2022-12-28T18:41:42.660Z,100163.50
2022-12-28T18:44:10.711Z,100161.63
2022-12-28T18:46:38.997Z,100157.03
2022-12-28T18:49:06.920Z,100149.72
2022-12-28T18:51:34.809Z,100148.88
2022-12-28T18:54:02.697Z,100139.91
2022-12-28T18:56:32.277Z,100130.69
2022-12-28T18:59:00.194Z,100140.72
2022-12-28T19:04:16.951Z,100127.97
2022-12-28T19:06:45.627Z,100130.91
2022-12-28T19:09:13.585Z,100114.63
2022-12-28T19:11:43.936Z,100120.06
2022-12-28T19:14:12.569Z,100120.06
2022-12-28T19:16:40.798Z,100115.47
2022-12-28T19:19:08.773Z,100112.75
2022-12-28T19:21:37.087Z,100106.25
2022-12-28T19:24:06.837Z,100099.16
2022-12-28T19:26:35.721Z,100098.09
2022-12-28T19:29:05.238Z,100095.41
2022-12-28T19:31:34.231Z,100097.28
2022-12-28T19:34:02.146Z,100094.56
2022-12-28T19:36:30.054Z,100096.44
2022-12-28T19:38:58.098Z,100089.13
2022-12-28T19:41:26.003Z,100095.41
2022-12-28T19:43:53.974Z,100089.97
2022-12-28T19:46:30.560Z,100096.44
2022-12-28T19:48:59.878Z,100084.75
2022-12-28T19:51:31.405Z,100079.94
2022-12-28T19:54:00.128Z,100082.66
2022-12-28T19:56:28.306Z,100079.94
2022-12-28T19:59:03.125Z,100066.34
2022-12-28T20:01:35.683Z,100070.94
2022-12-28T20:04:10.512Z,100067.41
2022-12-28T20:06:41.272Z,100076.38
2022-12-28T20:09:09.196Z,100063.63
2022-12-28T20:11:37.107Z,100063.63
2022-12-28T20:14:05.068Z,100054.53
2022-12-28T20:16:35.180Z,100054.66
2022-12-28T20:19:06.538Z,100054.66
2022-12-28T20:21:34.605Z,100065.25
2022-12-28T20:24:02.587Z,100060.91
2022-12-28T20:26:30.899Z,100060.91
2022-12-28T20:28:59.217Z,100049.22
2022-12-28T20:31:27.160Z,100039.19
2022-12-28T20:33:56.557Z,100040.25
2022-12-28T20:36:25.531Z,100033.75
2022-12-28T20:38:54.224Z,100045.69
2022-12-28T20:41:40.446Z,100031.84
2022-12-28T20:44:09.270Z,100034.81
2022-12-28T20:46:37.522Z,100030.22
2022-12-28T20:49:07.140Z,100021.25
2022-12-28T20:51:35.087Z,100020.97
2022-12-28T20:54:03.110Z,100023.69
2022-12-28T20:56:31.239Z,100025.63
2022-12-28T20:59:00.160Z,100018.25
2022-12-28T21:01:28.229Z,100007.41
2022-12-28T21:03:56.303Z,100018.25
2022-12-28T21:06:25.650Z,100012.03
2022-12-28T21:08:53.538Z,100020.19
2022-12-28T21:11:21.550Z,100016.63
2022-12-28T21:13:49.445Z,100011.22
2022-12-28T21:16:17.732Z,100013.66
2022-12-28T21:18:45.847Z,100017.47
2022-12-28T21:21:15.085Z,100012.84
2022-12-28T21:23:44.346Z,100006.59
2022-12-28T21:26:13.665Z,100007.16
2022-12-28T21:28:41.607Z,100003.88
2022-12-28T21:31:10.247Z,100006.34
2022-12-28T21:33:38.571Z,100005.50
2022-12-28T21:36:07.719Z,100018.25
2022-12-28T21:38:37.509Z,100001.97
2022-12-28T21:41:07.946Z,99997.38
2022-12-28T21:43:35.898Z,100001.16
2022-12-28T21:46:04.981Z,99993.81
2022-12-28T21:48:33.052Z,99991.09
2022-12-28T21:51:05.635Z,99981.56
2022-12-28T21:53:33.790Z,99980.25
2022-12-28T21:56:01.846Z,99981.06
2022-12-28T21:58:31.120Z,99976.47
2022-12-28T22:01:17.046Z,99972.09
2022-12-28T22:04:02.297Z,99963.94
2022-12-28T22:06:30.240Z,99958.78
2022-12-28T22:09:15.669Z,99963.94
2022-12-28T22:12:01.050Z,99957.72
2022-12-28T22:14:30.307Z,99959.59
2022-12-28T22:16:58.259Z,99964.22
2022-12-28T22:19:26.458Z,99966.66
2022-12-28T22:21:54.359Z,99963.94
2022-12-28T22:24:22.267Z,99959.34
2022-12-28T22:26:50.188Z,99966.66
2022-12-28T22:29:18.349Z,99960.19
2022-12-28T22:31:47.678Z,99957.47
2022-12-28T22:34:15.622Z,99967.50
2022-12-28T22:36:43.804Z,99966.66
2022-12-28T22:39:11.709Z,99952.03
2022-12-28T22:41:39.624Z,99956.63
2022-12-28T22:44:07.478Z,99957.72
2022-12-28T22:46:35.417Z,99953.09
2022-12-28T22:49:04.796Z,99947.44
2022-12-28T22:51:32.687Z,99950.75
2022-12-28T22:54:00.585Z,99957.84
2022-12-28T22:56:28.804Z,99953.22
2022-12-28T22:58:56.729Z,99948.84
2022-12-28T23:01:24.668Z,99945.09
2022-12-28T23:03:52.612Z,99952.16
2022-12-28T23:06:22.184Z,99944.81
2022-12-28T23:08:50.066Z,99950.50
2022-12-28T23:11:36.047Z,99945.88
2022-12-28T23:14:18.244Z,99934.22
2022-12-28T23:16:46.236Z,99948.59
2022-12-28T23:19:31.716Z,99948.59
2022-12-28T23:22:18.595Z,99948.84
2022-12-28T23:25:04.194Z,99946.13
2022-12-28T23:27:33.050Z,99929.00
2022-12-28T23:30:01.003Z,99927.34
2022-12-28T23:32:28.939Z,99925.69
2022-12-28T23:34:56.826Z,99924.41
2022-12-28T23:37:26.343Z,99913.56
2022-12-28T23:39:54.190Z,99910.22
2022-12-28T23:42:22.104Z,99898.31
2022-12-28T23:44:49.972Z,99895.00
2022-12-28T23:47:18.159Z,99881.19
2022-12-28T23:49:46.092Z,99885.78
2022-12-28T23:52:13.961Z,99880.34
2022-12-28T23:54:43.231Z,99880.34
2022-12-28T23:57:11.425Z,99883.06
2022-12-28T23:59:39.310Z,99880.97
